sensor_id;sensor_type;location;lat;lon;timestamp;temperature;humidity
57843;DHT22;43673;51.058;3.734;2023-07-28T00:01:38;19.10;99.90
57843;DHT22;43673;51.058;3.734;2023-07-28T00:04:04;19.10;99.90
57843;DHT22;43673;51.058;3.734;2023-07-28T00:06:33;19.10;99.90
57843;DHT22;43673;51.058;3.734;2023-07-28T00:08:58;19.10;99.90
57843;DHT22;43673;51.058;3.734;2023-07-28T00:11:24;19.20;99.90
57843;DHT22;43673;51.058;3.734;2023-07-28T00:13:50;19.10;99.90
57843;DHT22;43673;51.058;3.734;2023-07-28T00:16:16;19.10;99.90
57843;DHT22;43673;51.058;3.734;2023-07-28T00:18:41;19.10;99.90
57843;DHT22;43673;51.058;3.734;2023-07-28T00:21:07;19.10;99.90
57843;DHT22;43673;51.058;3.734;2023-07-28T00:23:33;19.10;99.90
57843;DHT22;43673;51.058;3.734;2023-07-28T00:25:58;19.10;99.90
57843;DHT22;43673;51.058;3.734;2023-07-28T00:28:24;19.10;99.90
57843;DHT22;43673;51.058;3.734;2023-07-28T00:30:50;19.20;99.90
57843;DHT22;43673;51.058;3.734;2023-07-28T00:33:16;19.20;99.90
57843;DHT22;43673;51.058;3.734;2023-07-28T00:35:42;19.30;99.90
57843;DHT22;43673;51.058;3.734;2023-07-28T00:38:09;19.30;99.90
57843;DHT22;43673;51.058;3.734;2023-07-28T00:40:35;19.20;99.90
57843;DHT22;43673;51.058;3.734;2023-07-28T00:43:01;19.20;99.90
57843;DHT22;43673;51.058;3.734;2023-07-28T00:45:28;19.20;99.90
57843;DHT22;43673;51.058;3.734;2023-07-28T00:47:55;19.30;99.90
57843;DHT22;43673;51.058;3.734;2023-07-28T00:50:24;19.30;99.90
57843;DHT22;43673;51.058;3.734;2023-07-28T00:52:50;19.30;99.90
57843;DHT22;43673;51.058;3.734;2023-07-28T00:55:17;19.30;99.90
57843;DHT22;43673;51.058;3.734;2023-07-28T00:57:42;19.30;99.90
57843;DHT22;43673;51.058;3.734;2023-07-28T01:00:14;19.30;99.90
57843;DHT22;43673;51.058;3.734;2023-07-28T01:02:40;19.40;99.90
57843;DHT22;43673;51.058;3.734;2023-07-28T01:05:06;19.40;99.90
57843;DHT22;43673;51.058;3.734;2023-07-28T01:07:41;19.40;99.90
57843;DHT22;43673;51.058;3.734;2023-07-28T01:10:13;19.40;99.90
57843;DHT22;43673;51.058;3.734;2023-07-28T01:12:43;19.50;99.90
57843;DHT22;43673;51.058;3.734;2023-07-28T01:15:09;19.50;99.90
57843;DHT22;43673;51.058;3.734;2023-07-28T01:17:35;19.50;99.90
57843;DHT22;43673;51.058;3.734;2023-07-28T01:20:01;19.50;99.90
57843;DHT22;43673;51.058;3.734;2023-07-28T01:25:35;19.50;99.90
57843;DHT22;43673;51.058;3.734;2023-07-28T01:28:02;19.60;99.90
57843;DHT22;43673;51.058;3.734;2023-07-28T01:30:29;19.60;99.90
57843;DHT22;43673;51.058;3.734;2023-07-28T01:32:55;19.60;99.90
57843;DHT22;43673;51.058;3.734;2023-07-28T01:35:22;19.60;99.90
57843;DHT22;43673;51.058;3.734;2023-07-28T01:37:47;19.60;99.90
57843;DHT22;43673;51.058;3.734;2023-07-28T01:40:19;19.60;99.90
57843;DHT22;43673;51.058;3.734;2023-07-28T01:42:45;19.60;99.90
57843;DHT22;43673;51.058;3.734;2023-07-28T01:45:11;19.60;99.90
57843;DHT22;43673;51.058;3.734;2023-07-28T01:47:37;19.50;99.90
57843;DHT22;43673;51.058;3.734;2023-07-28T01:50:03;19.50;99.90
57843;DHT22;43673;51.058;3.734;2023-07-28T01:52:29;19.60;99.90
57843;DHT22;43673;51.058;3.734;2023-07-28T01:54:55;19.50;99.90
57843;DHT22;43673;51.058;3.734;2023-07-28T01:57:20;19.60;99.90
57843;DHT22;43673;51.058;3.734;2023-07-28T01:59:46;19.60;99.90
57843;DHT22;43673;51.058;3.734;2023-07-28T02:02:12;19.60;99.90
57843;DHT22;43673;51.058;3.734;2023-07-28T02:04:38;19.60;99.90
57843;DHT22;43673;51.058;3.734;2023-07-28T02:07:03;19.60;99.90
57843;DHT22;43673;51.058;3.734;2023-07-28T02:09:29;19.60;99.90
57843;DHT22;43673;51.058;3.734;2023-07-28T02:11:55;19.60;99.90
57843;DHT22;43673;51.058;3.734;2023-07-28T02:14:20;19.60;99.90
57843;DHT22;43673;51.058;3.734;2023-07-28T02:16:46;19.60;99.90
57843;DHT22;43673;51.058;3.734;2023-07-28T02:19:12;19.60;99.90
57843;DHT22;43673;51.058;3.734;2023-07-28T02:21:37;19.60;99.90
57843;DHT22;43673;51.058;3.734;2023-07-28T02:24:03;19.60;99.90
57843;DHT22;43673;51.058;3.734;2023-07-28T02:26:29;19.60;99.90
57843;DHT22;43673;51.058;3.734;2023-07-28T02:28:55;19.60;99.90
57843;DHT22;43673;51.058;3.734;2023-07-28T02:31:21;19.60;99.90
57843;DHT22;43673;51.058;3.734;2023-07-28T02:33:46;19.60;99.90
57843;DHT22;43673;51.058;3.734;2023-07-28T02:36:12;19.60;99.90
57843;DHT22;43673;51.058;3.734;2023-07-28T02:38:38;19.60;99.90
57843;DHT22;43673;51.058;3.734;2023-07-28T02:41:03;19.60;99.90
57843;DHT22;43673;51.058;3.734;2023-07-28T02:43:30;19.70;99.90
57843;DHT22;43673;51.058;3.734;2023-07-28T02:45:57;19.70;99.90
57843;DHT22;43673;51.058;3.734;2023-07-28T02:48:23;19.70;99.90
57843;DHT22;43673;51.058;3.734;2023-07-28T02:50:50;19.70;99.90
57843;DHT22;43673;51.058;3.734;2023-07-28T02:53:16;19.70;99.90
57843;DHT22;43673;51.058;3.734;2023-07-28T02:55:43;19.70;99.90
57843;DHT22;43673;51.058;3.734;2023-07-28T02:58:09;19.60;99.90
57843;DHT22;43673;51.058;3.734;2023-07-28T03:00:43;19.60;99.90
57843;DHT22;43673;51.058;3.734;2023-07-28T03:03:10;19.60;99.90
57843;DHT22;43673;51.058;3.734;2023-07-28T03:05:36;19.60;99.90
57843;DHT22;43673;51.058;3.734;2023-07-28T03:08:03;19.60;99.90
57843;DHT22;43673;51.058;3.734;2023-07-28T03:10:29;19.70;99.90
57843;DHT22;43673;51.058;3.734;2023-07-28T03:12:55;19.70;99.90
57843;DHT22;43673;51.058;3.734;2023-07-28T03:15:21;19.70;99.90
57843;DHT22;43673;51.058;3.734;2023-07-28T03:17:48;19.70;99.90
57843;DHT22;43673;51.058;3.734;2023-07-28T03:20:14;19.70;99.90
57843;DHT22;43673;51.058;3.734;2023-07-28T03:22:39;19.70;99.90
57843;DHT22;43673;51.058;3.734;2023-07-28T03:25:05;19.70;99.90
57843;DHT22;43673;51.058;3.734;2023-07-28T03:27:31;19.70;99.90
57843;DHT22;43673;51.058;3.734;2023-07-28T03:29:57;19.70;99.90
57843;DHT22;43673;51.058;3.734;2023-07-28T03:32:22;19.70;99.90
57843;DHT22;43673;51.058;3.734;2023-07-28T03:34:48;19.70;99.90
57843;DHT22;43673;51.058;3.734;2023-07-28T03:37:14;19.70;99.90
57843;DHT22;43673;51.058;3.734;2023-07-28T03:39:39;19.70;99.90
57843;DHT22;43673;51.058;3.734;2023-07-28T03:42:08;19.80;99.90
57843;DHT22;43673;51.058;3.734;2023-07-28T03:44:34;19.80;99.90
57843;DHT22;43673;51.058;3.734;2023-07-28T03:47:00;19.80;99.90
57843;DHT22;43673;51.058;3.734;2023-07-28T03:49:25;19.70;99.90
57843;DHT22;43673;51.058;3.734;2023-07-28T03:51:51;19.80;99.90
57843;DHT22;43673;51.058;3.734;2023-07-28T03:54:17;19.80;99.90
57843;DHT22;43673;51.058;3.734;2023-07-28T03:56:42;19.80;99.90
57843;DHT22;43673;51.058;3.734;2023-07-28T03:59:08;19.80;99.90
57843;DHT22;43673;51.058;3.734;2023-07-28T04:01:34;19.80;99.90
57843;DHT22;43673;51.058;3.734;2023-07-28T04:03:59;19.80;99.90
57843;DHT22;43673;51.058;3.734;2023-07-28T04:06:42;19.80;99.90
57843;DHT22;43673;51.058;3.734;2023-07-28T04:09:08;19.80;99.90
57843;DHT22;43673;51.058;3.734;2023-07-28T04:11:34;19.70;99.90
57843;DHT22;43673;51.058;3.734;2023-07-28T04:14:00;19.80;99.90
57843;DHT22;43673;51.058;3.734;2023-07-28T04:16:25;19.90;99.90
57843;DHT22;43673;51.058;3.734;2023-07-28T04:18:51;19.80;99.90
57843;DHT22;43673;51.058;3.734;2023-07-28T04:21:17;19.90;99.90
57843;DHT22;43673;51.058;3.734;2023-07-28T04:23:43;19.90;99.90
57843;DHT22;43673;51.058;3.734;2023-07-28T04:26:09;19.80;99.90
57843;DHT22;43673;51.058;3.734;2023-07-28T04:28:34;19.80;99.90
57843;DHT22;43673;51.058;3.734;2023-07-28T04:31:00;19.80;99.90
57843;DHT22;43673;51.058;3.734;2023-07-28T04:33:26;19.80;99.90
57843;DHT22;43673;51.058;3.734;2023-07-28T04:35:53;19.80;99.90
57843;DHT22;43673;51.058;3.734;2023-07-28T04:38:19;19.90;99.90
57843;DHT22;43673;51.058;3.734;2023-07-28T04:40:44;19.90;99.90
57843;DHT22;43673;51.058;3.734;2023-07-28T04:43:10;19.90;99.90
57843;DHT22;43673;51.058;3.734;2023-07-28T04:45:36;20.00;99.90
57843;DHT22;43673;51.058;3.734;2023-07-28T04:48:02;20.00;99.90
57843;DHT22;43673;51.058;3.734;2023-07-28T04:50:28;20.10;99.90
57843;DHT22;43673;51.058;3.734;2023-07-28T04:52:54;20.10;99.90
57843;DHT22;43673;51.058;3.734;2023-07-28T04:55:20;20.00;99.90
57843;DHT22;43673;51.058;3.734;2023-07-28T04:57:46;20.00;99.90
57843;DHT22;43673;51.058;3.734;2023-07-28T05:00:12;20.00;99.90
57843;DHT22;43673;51.058;3.734;2023-07-28T05:02:38;19.90;99.90
57843;DHT22;43673;51.058;3.734;2023-07-28T05:05:04;20.00;99.90
57843;DHT22;43673;51.058;3.734;2023-07-28T05:07:29;20.00;99.90
57843;DHT22;43673;51.058;3.734;2023-07-28T05:09:55;20.00;99.90
57843;DHT22;43673;51.058;3.734;2023-07-28T05:12:21;20.00;99.90
57843;DHT22;43673;51.058;3.734;2023-07-28T05:14:47;20.00;99.90
57843;DHT22;43673;51.058;3.734;2023-07-28T05:17:12;20.00;99.90
57843;DHT22;43673;51.058;3.734;2023-07-28T05:19:38;20.00;99.90
57843;DHT22;43673;51.058;3.734;2023-07-28T05:22:04;20.00;99.90
57843;DHT22;43673;51.058;3.734;2023-07-28T05:24:32;20.00;99.90
57843;DHT22;43673;51.058;3.734;2023-07-28T05:26:58;20.00;99.90
57843;DHT22;43673;51.058;3.734;2023-07-28T05:29:24;20.00;99.90
57843;DHT22;43673;51.058;3.734;2023-07-28T05:31:50;20.10;99.90
57843;DHT22;43673;51.058;3.734;2023-07-28T05:34:15;20.10;99.90
57843;DHT22;43673;51.058;3.734;2023-07-28T05:36:41;20.10;99.90
57843;DHT22;43673;51.058;3.734;2023-07-28T05:39:07;20.10;99.90
57843;DHT22;43673;51.058;3.734;2023-07-28T05:41:32;20.20;99.90
57843;DHT22;43673;51.058;3.734;2023-07-28T05:43:58;20.20;99.90
57843;DHT22;43673;51.058;3.734;2023-07-28T05:46:24;20.30;99.90
57843;DHT22;43673;51.058;3.734;2023-07-28T05:48:49;20.50;99.90
57843;DHT22;43673;51.058;3.734;2023-07-28T05:51:15;20.40;99.90
57843;DHT22;43673;51.058;3.734;2023-07-28T05:53:41;20.40;99.90
57843;DHT22;43673;51.058;3.734;2023-07-28T05:56:07;20.40;99.90
57843;DHT22;43673;51.058;3.734;2023-07-28T05:58:33;20.40;99.90
57843;DHT22;43673;51.058;3.734;2023-07-28T06:00:58;20.50;99.90
57843;DHT22;43673;51.058;3.734;2023-07-28T06:03:25;20.70;99.90
57843;DHT22;43673;51.058;3.734;2023-07-28T06:05:52;20.90;99.90
57843;DHT22;43673;51.058;3.734;2023-07-28T06:08:18;21.00;99.90
57843;DHT22;43673;51.058;3.734;2023-07-28T06:10:43;21.00;99.90
57843;DHT22;43673;51.058;3.734;2023-07-28T06:13:09;21.00;99.90
57843;DHT22;43673;51.058;3.734;2023-07-28T06:15:35;21.00;99.90
57843;DHT22;43673;51.058;3.734;2023-07-28T06:18:04;20.90;99.90
57843;DHT22;43673;51.058;3.734;2023-07-28T06:20:30;21.00;99.90
57843;DHT22;43673;51.058;3.734;2023-07-28T06:22:56;20.90;99.90
57843;DHT22;43673;51.058;3.734;2023-07-28T06:25:22;20.90;99.90
57843;DHT22;43673;51.058;3.734;2023-07-28T06:27:48;20.90;99.90
57843;DHT22;43673;51.058;3.734;2023-07-28T06:30:13;21.00;99.90
57843;DHT22;43673;51.058;3.734;2023-07-28T06:32:39;21.00;99.90
57843;DHT22;43673;51.058;3.734;2023-07-28T06:35:07;21.00;99.90
57843;DHT22;43673;51.058;3.734;2023-07-28T06:37:34;21.00;99.90
57843;DHT22;43673;51.058;3.734;2023-07-28T06:40:00;21.10;99.90
57843;DHT22;43673;51.058;3.734;2023-07-28T06:42:25;21.20;99.90
57843;DHT22;43673;51.058;3.734;2023-07-28T06:44:51;21.30;99.90
57843;DHT22;43673;51.058;3.734;2023-07-28T06:47:18;21.40;99.90
57843;DHT22;43673;51.058;3.734;2023-07-28T06:49:44;21.50;99.90
57843;DHT22;43673;51.058;3.734;2023-07-28T06:52:10;21.60;99.90
57843;DHT22;43673;51.058;3.734;2023-07-28T06:54:36;21.70;99.90
57843;DHT22;43673;51.058;3.734;2023-07-28T06:57:02;21.60;99.90
57843;DHT22;43673;51.058;3.734;2023-07-28T06:59:27;21.60;99.90
57843;DHT22;43673;51.058;3.734;2023-07-28T07:01:53;21.80;99.90
57843;DHT22;43673;51.058;3.734;2023-07-28T07:04:19;22.10;99.90
57843;DHT22;43673;51.058;3.734;2023-07-28T07:06:45;22.30;99.90
57843;DHT22;43673;51.058;3.734;2023-07-28T07:09:11;22.50;99.90
57843;DHT22;43673;51.058;3.734;2023-07-28T07:11:40;22.70;99.90
57843;DHT22;43673;51.058;3.734;2023-07-28T07:14:06;22.70;99.90
57843;DHT22;43673;51.058;3.734;2023-07-28T07:16:33;22.80;99.90
57843;DHT22;43673;51.058;3.734;2023-07-28T07:19:05;22.90;99.90
57843;DHT22;43673;51.058;3.734;2023-07-28T07:21:31;22.80;99.90
57843;DHT22;43673;51.058;3.734;2023-07-28T07:23:59;22.80;99.90
57843;DHT22;43673;51.058;3.734;2023-07-28T07:26:25;22.80;99.90
57843;DHT22;43673;51.058;3.734;2023-07-28T07:28:51;23.30;99.90
57843;DHT22;43673;51.058;3.734;2023-07-28T07:31:20;24.20;99.90
57843;DHT22;43673;51.058;3.734;2023-07-28T07:33:45;25.70;99.90
57843;DHT22;43673;51.058;3.734;2023-07-28T07:36:15;27.10;99.90
57843;DHT22;43673;51.058;3.734;2023-07-28T07:38:42;27.60;99.90
57843;DHT22;43673;51.058;3.734;2023-07-28T07:41:11;27.80;99.90
57843;DHT22;43673;51.058;3.734;2023-07-28T07:43:38;27.50;99.90
57843;DHT22;43673;51.058;3.734;2023-07-28T07:46:04;26.40;99.90
57843;DHT22;43673;51.058;3.734;2023-07-28T07:48:30;25.80;99.90
57843;DHT22;43673;51.058;3.734;2023-07-28T07:50:56;25.50;99.90
57843;DHT22;43673;51.058;3.734;2023-07-28T07:53:21;25.20;99.90
57843;DHT22;43673;51.058;3.734;2023-07-28T07:55:48;25.10;99.90
57843;DHT22;43673;51.058;3.734;2023-07-28T07:58:14;24.90;99.90
57843;DHT22;43673;51.058;3.734;2023-07-28T08:00:40;24.80;99.90
57843;DHT22;43673;51.058;3.734;2023-07-28T08:03:06;24.70;99.90
57843;DHT22;43673;51.058;3.734;2023-07-28T08:05:32;24.80;99.90
57843;DHT22;43673;51.058;3.734;2023-07-28T08:08:01;24.90;99.90
57843;DHT22;43673;51.058;3.734;2023-07-28T08:10:26;24.90;99.90
57843;DHT22;43673;51.058;3.734;2023-07-28T08:12:53;25.10;99.90
57843;DHT22;43673;51.058;3.734;2023-07-28T08:15:19;25.30;99.90
57843;DHT22;43673;51.058;3.734;2023-07-28T08:17:45;25.70;99.90
57843;DHT22;43673;51.058;3.734;2023-07-28T08:20:11;26.00;99.90
57843;DHT22;43673;51.058;3.734;2023-07-28T08:22:43;25.90;99.90
57843;DHT22;43673;51.058;3.734;2023-07-28T08:25:09;25.70;99.90
57843;DHT22;43673;51.058;3.734;2023-07-28T08:27:34;25.70;99.90
57843;DHT22;43673;51.058;3.734;2023-07-28T08:30:00;25.50;99.90
57843;DHT22;43673;51.058;3.734;2023-07-28T08:32:26;25.20;99.90
57843;DHT22;43673;51.058;3.734;2023-07-28T08:34:52;25.20;99.90
57843;DHT22;43673;51.058;3.734;2023-07-28T08:37:18;24.90;99.90
57843;DHT22;43673;51.058;3.734;2023-07-28T08:39:43;24.60;99.90
57843;DHT22;43673;51.058;3.734;2023-07-28T08:42:09;24.50;99.90
57843;DHT22;43673;51.058;3.734;2023-07-28T08:44:35;24.30;99.90
57843;DHT22;43673;51.058;3.734;2023-07-28T08:47:04;24.20;99.90
57843;DHT22;43673;51.058;3.734;2023-07-28T08:49:31;23.60;99.90
57843;DHT22;43673;51.058;3.734;2023-07-28T08:51:59;23.60;99.90
57843;DHT22;43673;51.058;3.734;2023-07-28T08:54:26;23.40;99.90
57843;DHT22;43673;51.058;3.734;2023-07-28T08:56:51;23.50;99.90
57843;DHT22;43673;51.058;3.734;2023-07-28T08:59:26;23.20;99.90
57843;DHT22;43673;51.058;3.734;2023-07-28T09:01:56;23.20;99.90
57843;DHT22;43673;51.058;3.734;2023-07-28T09:04:23;23.30;99.90
57843;DHT22;43673;51.058;3.734;2023-07-28T09:06:50;23.50;99.90
57843;DHT22;43673;51.058;3.734;2023-07-28T09:09:17;23.10;99.90
57843;DHT22;43673;51.058;3.734;2023-07-28T09:11:48;22.90;99.90
57843;DHT22;43673;51.058;3.734;2023-07-28T09:14:16;22.80;99.90
57843;DHT22;43673;51.058;3.734;2023-07-28T09:16:42;23.10;99.90
57843;DHT22;43673;51.058;3.734;2023-07-28T09:19:09;23.40;99.90
57843;DHT22;43673;51.058;3.734;2023-07-28T09:21:35;23.60;99.90
57843;DHT22;43673;51.058;3.734;2023-07-28T09:24:06;23.80;99.90
57843;DHT22;43673;51.058;3.734;2023-07-28T09:26:46;24.30;99.90
57843;DHT22;43673;51.058;3.734;2023-07-28T09:31:38;24.30;99.90
57843;DHT22;43673;51.058;3.734;2023-07-28T09:34:09;24.50;99.90
57843;DHT22;43673;51.058;3.734;2023-07-28T09:36:36;24.80;99.90
57843;DHT22;43673;51.058;3.734;2023-07-28T09:39:05;24.90;99.90
57843;DHT22;43673;51.058;3.734;2023-07-28T09:41:37;24.70;99.90
57843;DHT22;43673;51.058;3.734;2023-07-28T09:44:04;24.60;99.90
57843;DHT22;43673;51.058;3.734;2023-07-28T09:46:33;24.50;99.90
57843;DHT22;43673;51.058;3.734;2023-07-28T09:49:05;24.10;99.90
57843;DHT22;43673;51.058;3.734;2023-07-28T09:51:36;24.00;99.90
57843;DHT22;43673;51.058;3.734;2023-07-28T09:54:11;23.70;99.90
57843;DHT22;43673;51.058;3.734;2023-07-28T09:56:38;23.60;99.90
57843;DHT22;43673;51.058;3.734;2023-07-28T09:59:13;23.50;99.90
57843;DHT22;43673;51.058;3.734;2023-07-28T10:01:44;23.10;99.90
57843;DHT22;43673;51.058;3.734;2023-07-28T10:04:11;22.90;99.90
57843;DHT22;43673;51.058;3.734;2023-07-28T10:06:37;23.10;99.90
57843;DHT22;43673;51.058;3.734;2023-07-28T10:09:04;23.60;99.90
57843;DHT22;43673;51.058;3.734;2023-07-28T10:11:31;24.10;99.90
57843;DHT22;43673;51.058;3.734;2023-07-28T10:13:57;24.10;99.90
57843;DHT22;43673;51.058;3.734;2023-07-28T10:16:30;24.10;99.90
57843;DHT22;43673;51.058;3.734;2023-07-28T10:18:59;24.20;99.90
57843;DHT22;43673;51.058;3.734;2023-07-28T10:21:27;24.50;99.90
57843;DHT22;43673;51.058;3.734;2023-07-28T10:23:55;24.90;99.90
57843;DHT22;43673;51.058;3.734;2023-07-28T10:26:38;25.30;99.90
57843;DHT22;43673;51.058;3.734;2023-07-28T10:29:13;25.40;99.90
57843;DHT22;43673;51.058;3.734;2023-07-28T10:31:59;25.10;99.90
57843;DHT22;43673;51.058;3.734;2023-07-28T10:34:24;25.10;99.90
57843;DHT22;43673;51.058;3.734;2023-07-28T10:37:00;25.10;99.90
57843;DHT22;43673;51.058;3.734;2023-07-28T10:39:26;25.30;99.90
57843;DHT22;43673;51.058;3.734;2023-07-28T10:42:07;25.60;99.90
57843;DHT22;43673;51.058;3.734;2023-07-28T10:44:34;25.90;99.90
57843;DHT22;43673;51.058;3.734;2023-07-28T10:47:00;26.40;99.90
57843;DHT22;43673;51.058;3.734;2023-07-28T10:49:31;26.30;99.90
57843;DHT22;43673;51.058;3.734;2023-07-28T10:51:57;26.40;99.90
57843;DHT22;43673;51.058;3.734;2023-07-28T10:54:23;26.10;99.90
57843;DHT22;43673;51.058;3.734;2023-07-28T10:56:49;25.40;99.90
57843;DHT22;43673;51.058;3.734;2023-07-28T10:59:15;25.00;99.90
57843;DHT22;43673;51.058;3.734;2023-07-28T11:01:42;24.80;99.90
57843;DHT22;43673;51.058;3.734;2023-07-28T11:04:19;24.80;99.90
57843;DHT22;43673;51.058;3.734;2023-07-28T11:06:47;24.90;99.90
57843;DHT22;43673;51.058;3.734;2023-07-28T11:09:14;25.10;99.90
57843;DHT22;43673;51.058;3.734;2023-07-28T11:11:41;25.10;99.90
57843;DHT22;43673;51.058;3.734;2023-07-28T11:14:07;25.20;99.90
57843;DHT22;43673;51.058;3.734;2023-07-28T11:16:38;25.20;99.90
57843;DHT22;43673;51.058;3.734;2023-07-28T11:19:09;25.20;99.90
57843;DHT22;43673;51.058;3.734;2023-07-28T11:21:43;25.10;99.90
57843;DHT22;43673;51.058;3.734;2023-07-28T11:24:10;24.60;99.90
57843;DHT22;43673;51.058;3.734;2023-07-28T11:26:38;24.10;99.90
57843;DHT22;43673;51.058;3.734;2023-07-28T11:29:04;24.00;99.90
57843;DHT22;43673;51.058;3.734;2023-07-28T11:31:30;23.70;99.90
57843;DHT22;43673;51.058;3.734;2023-07-28T11:33:56;23.70;99.90
57843;DHT22;43673;51.058;3.734;2023-07-28T11:36:26;23.60;99.90
57843;DHT22;43673;51.058;3.734;2023-07-28T11:38:54;23.40;99.90
57843;DHT22;43673;51.058;3.734;2023-07-28T11:41:21;23.20;99.90
57843;DHT22;43673;51.058;3.734;2023-07-28T11:43:48;23.10;99.90
57843;DHT22;43673;51.058;3.734;2023-07-28T11:46:40;23.20;99.90
57843;DHT22;43673;51.058;3.734;2023-07-28T11:49:14;23.40;99.90
57843;DHT22;43673;51.058;3.734;2023-07-28T11:51:44;23.80;99.90
57843;DHT22;43673;51.058;3.734;2023-07-28T11:54:14;24.10;99.90
57843;DHT22;43673;51.058;3.734;2023-07-28T11:56:45;24.60;99.90
57843;DHT22;43673;51.058;3.734;2023-07-28T11:59:12;25.20;99.90
57843;DHT22;43673;51.058;3.734;2023-07-28T12:01:59;25.50;99.90
57843;DHT22;43673;51.058;3.734;2023-07-28T12:04:38;25.40;99.90
57843;DHT22;43673;51.058;3.734;2023-07-28T12:07:09;25.30;99.90
57843;DHT22;43673;51.058;3.734;2023-07-28T12:09:57;24.90;99.90
57843;DHT22;43673;51.058;3.734;2023-07-28T12:12:28;24.30;99.90
57843;DHT22;43673;51.058;3.734;2023-07-28T12:14:58;23.80;99.90
57843;DHT22;43673;51.058;3.734;2023-07-28T12:17:30;23.50;99.90
57843;DHT22;43673;51.058;3.734;2023-07-28T12:20:06;23.50;99.90
57843;DHT22;43673;51.058;3.734;2023-07-28T12:22:37;23.80;99.90
57843;DHT22;43673;51.058;3.734;2023-07-28T12:25:04;24.30;99.90
57843;DHT22;43673;51.058;3.734;2023-07-28T12:27:30;24.90;99.90
57843;DHT22;43673;51.058;3.734;2023-07-28T12:29:56;25.10;99.90
57843;DHT22;43673;51.058;3.734;2023-07-28T12:32:22;25.50;99.90
57843;DHT22;43673;51.058;3.734;2023-07-28T12:34:49;26.00;99.90
57843;DHT22;43673;51.058;3.734;2023-07-28T12:37:15;26.20;99.90
57843;DHT22;43673;51.058;3.734;2023-07-28T12:39:41;26.10;99.90
57843;DHT22;43673;51.058;3.734;2023-07-28T12:42:08;25.90;99.90
57843;DHT22;43673;51.058;3.734;2023-07-28T12:44:35;25.90;99.90
57843;DHT22;43673;51.058;3.734;2023-07-28T12:47:01;26.10;99.90
57843;DHT22;43673;51.058;3.734;2023-07-28T12:49:29;26.20;99.90
57843;DHT22;43673;51.058;3.734;2023-07-28T12:52:03;26.30;99.90
57843;DHT22;43673;51.058;3.734;2023-07-28T12:54:30;26.10;99.90
57843;DHT22;43673;51.058;3.734;2023-07-28T12:56:55;26.20;99.90
57843;DHT22;43673;51.058;3.734;2023-07-28T12:59:21;26.50;99.90
57843;DHT22;43673;51.058;3.734;2023-07-28T13:01:47;26.30;99.90
57843;DHT22;43673;51.058;3.734;2023-07-28T13:04:13;26.30;99.90
57843;DHT22;43673;51.058;3.734;2023-07-28T13:06:39;26.30;99.90
57843;DHT22;43673;51.058;3.734;2023-07-28T13:09:07;26.20;99.90
57843;DHT22;43673;51.058;3.734;2023-07-28T13:11:36;25.90;99.90
57843;DHT22;43673;51.058;3.734;2023-07-28T13:14:02;25.50;99.90
57843;DHT22;43673;51.058;3.734;2023-07-28T13:16:28;25.10;99.90
57843;DHT22;43673;51.058;3.734;2023-07-28T13:18:53;25.10;99.90
57843;DHT22;43673;51.058;3.734;2023-07-28T13:21:19;25.10;99.90
57843;DHT22;43673;51.058;3.734;2023-07-28T13:26:17;25.40;99.90
57843;DHT22;43673;51.058;3.734;2023-07-28T13:28:46;25.80;99.90
57843;DHT22;43673;51.058;3.734;2023-07-28T13:31:13;26.30;99.90
57843;DHT22;43673;51.058;3.734;2023-07-28T13:33:39;26.30;99.90
57843;DHT22;43673;51.058;3.734;2023-07-28T13:36:06;26.10;99.90
57843;DHT22;43673;51.058;3.734;2023-07-28T13:38:33;26.40;99.90
57843;DHT22;43673;51.058;3.734;2023-07-28T13:40:59;26.60;99.90
57843;DHT22;43673;51.058;3.734;2023-07-28T13:43:25;26.60;99.90
57843;DHT22;43673;51.058;3.734;2023-07-28T13:45:51;26.70;99.90
57843;DHT22;43673;51.058;3.734;2023-07-28T13:48:17;26.60;99.90
57843;DHT22;43673;51.058;3.734;2023-07-28T13:50:43;26.70;99.90
57843;DHT22;43673;51.058;3.734;2023-07-28T13:53:10;26.70;99.90
57843;DHT22;43673;51.058;3.734;2023-07-28T13:55:36;26.80;99.90
57843;DHT22;43673;51.058;3.734;2023-07-28T13:58:01;26.80;99.90
57843;DHT22;43673;51.058;3.734;2023-07-28T14:00:27;27.00;99.90
57843;DHT22;43673;51.058;3.734;2023-07-28T14:02:54;27.30;99.90
57843;DHT22;43673;51.058;3.734;2023-07-28T14:05:20;27.70;99.90
57843;DHT22;43673;51.058;3.734;2023-07-28T14:07:46;27.80;99.90
57843;DHT22;43673;51.058;3.734;2023-07-28T14:10:12;28.00;99.90
57843;DHT22;43673;51.058;3.734;2023-07-28T14:12:38;28.30;99.90
57843;DHT22;43673;51.058;3.734;2023-07-28T14:15:05;28.50;99.90
57843;DHT22;43673;51.058;3.734;2023-07-28T14:17:33;28.50;99.90
57843;DHT22;43673;51.058;3.734;2023-07-28T14:19:59;28.40;99.90
57843;DHT22;43673;51.058;3.734;2023-07-28T14:22:25;28.20;99.90
57843;DHT22;43673;51.058;3.734;2023-07-28T14:24:51;28.20;99.90
57843;DHT22;43673;51.058;3.734;2023-07-28T14:27:17;28.40;99.90
57843;DHT22;43673;51.058;3.734;2023-07-28T14:29:43;28.20;99.90
57843;DHT22;43673;51.058;3.734;2023-07-28T14:32:09;28.00;99.90
57843;DHT22;43673;51.058;3.734;2023-07-28T14:34:35;27.60;99.90
57843;DHT22;43673;51.058;3.734;2023-07-28T14:37:04;27.30;99.90
57843;DHT22;43673;51.058;3.734;2023-07-28T14:39:33;27.40;99.90
57843;DHT22;43673;51.058;3.734;2023-07-28T14:41:59;27.40;99.90
57843;DHT22;43673;51.058;3.734;2023-07-28T14:44:25;27.40;99.90
57843;DHT22;43673;51.058;3.734;2023-07-28T14:46:50;27.40;99.90
57843;DHT22;43673;51.058;3.734;2023-07-28T14:49:16;27.50;99.90
57843;DHT22;43673;51.058;3.734;2023-07-28T14:51:42;27.50;99.90
57843;DHT22;43673;51.058;3.734;2023-07-28T14:54:08;27.60;99.90
57843;DHT22;43673;51.058;3.734;2023-07-28T14:56:33;27.60;99.90
57843;DHT22;43673;51.058;3.734;2023-07-28T14:58:59;27.50;99.90
57843;DHT22;43673;51.058;3.734;2023-07-28T15:01:29;27.70;99.90
57843;DHT22;43673;51.058;3.734;2023-07-28T15:03:55;27.50;99.90
57843;DHT22;43673;51.058;3.734;2023-07-28T15:06:21;27.40;99.90
57843;DHT22;43673;51.058;3.734;2023-07-28T15:08:47;27.50;99.90
57843;DHT22;43673;51.058;3.734;2023-07-28T15:11:13;27.80;99.90
57843;DHT22;43673;51.058;3.734;2023-07-28T15:13:39;27.70;99.90
57843;DHT22;43673;51.058;3.734;2023-07-28T15:16:06;27.50;99.90
57843;DHT22;43673;51.058;3.734;2023-07-28T15:18:32;27.20;99.90
57843;DHT22;43673;51.058;3.734;2023-07-28T15:20:57;27.10;99.90
57843;DHT22;43673;51.058;3.734;2023-07-28T15:23:27;26.80;99.90
57843;DHT22;43673;51.058;3.734;2023-07-28T15:25:53;26.80;99.90
57843;DHT22;43673;51.058;3.734;2023-07-28T15:28:26;26.90;99.90
57843;DHT22;43673;51.058;3.734;2023-07-28T15:30:52;26.90;99.90
57843;DHT22;43673;51.058;3.734;2023-07-28T15:33:21;26.80;99.90
57843;DHT22;43673;51.058;3.734;2023-07-28T15:35:54;26.80;99.90
57843;DHT22;43673;51.058;3.734;2023-07-28T15:38:20;26.90;99.90